createdAt,value
2019-05-29T00:00:46.281Z,94573.16
2019-05-29T00:03:14.354Z,94564.14
2019-05-29T00:05:39.781Z,94572.53
2019-05-29T00:08:06.540Z,94576.28
2019-05-29T00:10:33.232Z,94578.80
2019-05-29T00:12:59.870Z,94577.25
2019-05-29T00:15:26.516Z,94583.05
2019-05-29T00:17:53.153Z,94588.27
2019-05-29T00:20:19.797Z,94588.64
2019-05-29T00:22:46.491Z,94583.40
2019-05-29T00:25:13.181Z,94580.97
2019-05-29T00:27:39.824Z,94583.10
2019-05-29T00:30:06.950Z,94590.25
2019-05-29T00:32:33.126Z,94595.16
2019-05-29T00:34:59.789Z,94597.25
2019-05-29T00:37:26.434Z,94604.02
2019-05-29T00:39:53.084Z,94604.47
2019-05-29T00:44:46.438Z,94603.50
2019-05-29T00:47:13.657Z,94607.88
2019-05-29T00:49:39.752Z,94592.72
2019-05-29T00:52:06.388Z,94601.98
2019-05-29T00:54:33.072Z,94607.54
2019-05-29T00:56:59.858Z,94604.53
2019-05-29T00:59:26.496Z,94602.86
2019-05-29T01:01:53.240Z,94608.98
2019-05-29T01:04:20.069Z,94604.95
2019-05-29T01:06:46.748Z,94609.55
2019-05-29T01:09:14.443Z,94599.00
2019-05-29T01:11:40.233Z,94604.98
2019-05-29T01:14:06.879Z,94603.89
2019-05-29T01:16:33.535Z,94606.66
2019-05-29T01:19:00.177Z,94605.02
2019-05-29T01:21:26.877Z,94572.72
2019-05-29T01:23:53.556Z,94601.95
2019-05-29T01:26:20.904Z,94602.31
2019-05-29T01:28:46.877Z,94599.66
2019-05-29T01:31:13.651Z,94598.78
2019-05-29T01:33:40.208Z,94602.09
2019-05-29T01:36:06.854Z,94603.87
2019-05-29T01:38:33.490Z,94605.36
2019-05-29T01:41:00.151Z,94612.87
2019-05-29T01:43:27.678Z,94607.78
2019-05-29T01:45:53.485Z,94617.20
2019-05-29T01:48:20.128Z,94621.48
2019-05-29T01:50:46.770Z,94622.75
2019-05-29T01:53:13.458Z,94624.25
2019-05-29T01:55:40.093Z,94622.42
2019-05-29T01:58:06.822Z,94614.97
2019-05-29T02:00:33.501Z,94611.93
2019-05-29T02:03:00.138Z,94617.81
2019-05-29T02:07:53.599Z,94625.59
2019-05-29T02:10:20.357Z,94624.95
2019-05-29T02:12:46.889Z,94617.55
2019-05-29T02:15:23.926Z,94617.95
2019-05-29T02:17:40.234Z,94626.03
2019-05-29T02:20:06.904Z,94628.05
2019-05-29T02:22:33.553Z,94637.58
2019-05-29T02:25:00.201Z,94627.80
2019-05-29T02:27:27.726Z,94625.41
2019-05-29T02:29:53.532Z,94624.97
2019-05-29T02:32:21.372Z,94626.36
2019-05-29T02:34:46.822Z,94629.42
2019-05-29T02:37:13.538Z,94634.80
2019-05-29T02:39:40.188Z,94629.80
2019-05-29T02:42:06.819Z,94638.83
2019-05-29T02:44:33.469Z,94634.42
2019-05-29T02:47:00.172Z,94647.66
2019-05-29T02:49:28.099Z,94656.24
2019-05-29T02:51:53.463Z,94647.42
2019-05-29T02:54:20.434Z,94645.28
2019-05-29T02:56:46.882Z,94642.75
2019-05-29T02:59:13.525Z,94648.16
2019-05-29T03:01:40.170Z,94642.89
2019-05-29T03:04:06.865Z,94650.25
2019-05-29T03:06:33.715Z,94648.01
2019-05-29T03:09:00.368Z,94656.55
2019-05-29T03:11:27.233Z,94660.66
2019-05-29T03:13:54.915Z,94660.88
2019-05-29T03:16:20.336Z,94659.93
2019-05-29T03:18:48.051Z,94664.27
2019-05-29T03:21:13.795Z,94673.87
2019-05-29T03:23:40.441Z,94668.51
2019-05-29T03:28:35.037Z,94669.77
2019-05-29T03:31:00.501Z,94672.11
2019-05-29T03:33:31.041Z,94672.14
2019-05-29T03:35:53.802Z,94677.90
2019-05-29T03:38:20.446Z,94676.00
2019-05-29T03:40:47.094Z,94683.45
2019-05-29T03:43:16.914Z,94681.82
2019-05-29T03:45:43.554Z,94689.82
2019-05-29T03:48:10.197Z,94685.40
2019-05-29T03:50:38.182Z,94680.44
2019-05-29T03:53:03.509Z,94681.09
2019-05-29T03:55:31.556Z,94676.53
2019-05-29T03:57:56.844Z,94682.33
2019-05-29T04:00:23.523Z,94678.55
2019-05-29T04:02:50.217Z,94685.64
2019-05-29T04:05:17.028Z,94679.20
2019-05-29T04:07:43.671Z,94687.23
2019-05-29T04:10:10.403Z,94683.77
2019-05-29T04:12:38.097Z,94688.37
2019-05-29T04:15:03.698Z,94687.42
2019-05-29T04:17:31.841Z,94695.01
2019-05-29T04:19:56.973Z,94698.48
2019-05-29T04:22:23.620Z,94697.67
2019-05-29T04:27:16.915Z,94710.31
2019-05-29T04:29:43.571Z,94702.45
2019-05-29T04:32:10.207Z,94708.09
2019-05-29T04:34:37.897Z,94708.52
2019-05-29T04:37:07.194Z,94714.72
2019-05-29T04:39:30.598Z,94719.37
2019-05-29T04:41:56.856Z,94713.23
2019-05-29T04:44:23.508Z,94715.73
2019-05-29T04:47:08.987Z,94712.64
2019-05-29T04:49:20.176Z,94717.25
2019-05-29T04:51:43.479Z,94712.66
2019-05-29T04:54:10.105Z,94716.13
2019-05-29T04:56:36.983Z,94717.20
2019-05-29T05:01:30.898Z,94714.92
2019-05-29T05:03:56.769Z,94713.45
2019-05-29T05:06:23.493Z,94717.06
2019-05-29T05:08:50.131Z,94721.14
2019-05-29T05:11:16.789Z,94722.21
2019-05-29T05:13:43.439Z,94716.27
2019-05-29T05:16:10.094Z,94717.94
2019-05-29T05:18:37.865Z,94710.41
2019-05-29T05:21:03.392Z,94717.30
2019-05-29T05:23:30.198Z,94714.04
2019-05-29T05:25:56.680Z,94712.00
2019-05-29T05:28:23.324Z,94711.95
2019-05-29T05:30:49.975Z,94716.33
2019-05-29T05:33:16.618Z,94714.00
2019-05-29T05:35:43.276Z,94717.86
2019-05-29T05:38:09.915Z,94714.62
2019-05-29T05:40:39.477Z,94712.55
2019-05-29T05:43:03.231Z,94709.48
2019-05-29T05:45:30.858Z,94713.70
2019-05-29T05:47:57.995Z,94719.75
2019-05-29T05:50:23.203Z,94716.55
2019-05-29T05:52:49.939Z,94721.84
2019-05-29T05:55:16.678Z,94723.50
2019-05-29T05:57:43.321Z,94722.27
2019-05-29T06:00:09.970Z,94726.66
2019-05-29T06:02:38.138Z,94729.14
2019-05-29T06:05:03.266Z,94727.94
2019-05-29T06:07:29.901Z,94728.91
2019-05-29T06:12:23.282Z,94723.61
2019-05-29T06:14:49.928Z,94726.44
2019-05-29T06:17:16.570Z,94733.28
2019-05-29T06:19:43.266Z,94735.98
2019-05-29T06:22:09.857Z,94736.06
2019-05-29T06:24:37.183Z,94737.91
2019-05-29T06:27:03.172Z,94743.48
2019-05-29T06:29:29.814Z,94736.24
2019-05-29T06:31:56.454Z,94733.13
2019-05-29T06:34:23.127Z,94734.32
2019-05-29T06:36:49.754Z,94741.24
2019-05-29T06:39:16.397Z,94738.83
2019-05-29T06:41:44.361Z,94741.62
2019-05-29T06:44:09.728Z,94742.08
2019-05-29T06:46:36.387Z,94739.14
2019-05-29T06:49:03.048Z,94740.64
2019-05-29T06:51:29.768Z,94746.41
2019-05-29T06:53:56.408Z,94737.03
2019-05-29T06:56:23.040Z,94735.58
2019-05-29T06:58:49.703Z,94743.14
2019-05-29T07:01:16.342Z,94735.34
2019-05-29T07:03:43.970Z,94730.98
2019-05-29T07:06:09.905Z,94735.16
2019-05-29T07:08:39.946Z,94737.34
2019-05-29T07:11:03.129Z,94738.28
2019-05-29T07:13:29.774Z,94740.59
2019-05-29T07:15:56.431Z,94739.80
2019-05-29T07:18:23.096Z,94745.97
2019-05-29T07:20:49.725Z,94741.75
2019-05-29T07:23:16.368Z,94735.54
2019-05-29T07:25:43.062Z,94732.94
2019-05-29T07:28:09.704Z,94745.30
2019-05-29T07:30:37.318Z,94743.11
2019-05-29T07:33:03.042Z,94749.55
2019-05-29T07:35:29.670Z,94739.34
2019-05-29T07:37:56.319Z,94739.05
2019-05-29T07:40:22.962Z,94740.89
2019-05-29T07:42:55.185Z,94742.92
2019-05-29T07:45:16.254Z,94737.84
2019-05-29T07:47:44.272Z,94733.89
2019-05-29T07:50:09.539Z,94740.96
2019-05-29T07:52:36.261Z,94742.58
2019-05-29T07:55:02.882Z,94738.55
2019-05-29T07:57:29.534Z,94738.55
2019-05-29T07:59:57.319Z,94731.20
2019-05-29T08:02:22.827Z,94734.98
2019-05-29T08:04:49.876Z,94745.41
2019-05-29T08:07:16.358Z,94744.28
2019-05-29T08:09:43.624Z,94739.16
2019-05-29T08:12:09.660Z,94734.22
2019-05-29T08:14:36.307Z,94739.67
2019-05-29T08:17:02.955Z,94747.81
2019-05-29T08:19:29.615Z,94743.27
2019-05-29T08:21:56.247Z,94746.20
2019-05-29T08:24:24.837Z,94741.57
2019-05-29T08:26:50.972Z,94737.80
2019-05-29T08:29:16.257Z,94741.45
2019-05-29T08:31:42.905Z,94739.94
2019-05-29T08:34:09.558Z,94735.31
2019-05-29T08:36:36.330Z,94741.48
2019-05-29T08:39:02.987Z,94743.63
2019-05-29T08:41:29.630Z,94736.25
2019-05-29T08:43:56.280Z,94739.45
2019-05-29T08:46:22.986Z,94739.19
2019-05-29T08:48:49.966Z,94742.95
2019-05-29T08:51:16.260Z,94738.31
2019-05-29T08:53:44.138Z,94744.98
2019-05-29T08:56:09.657Z,94742.31
2019-05-29T08:58:37.302Z,94736.06
2019-05-29T09:01:03.162Z,94739.03
2019-05-29T09:03:29.800Z,94744.33
2019-05-29T09:06:08.544Z,94746.03
2019-05-29T09:08:23.289Z,94746.74
2019-05-29T09:10:51.652Z,94734.05
2019-05-29T09:15:43.265Z,94737.36
2019-05-29T09:18:09.910Z,94737.12
2019-05-29T09:20:57.941Z,94735.55
2019-05-29T09:23:03.205Z,94730.94
2019-05-29T09:25:29.841Z,94732.38
2019-05-29T09:27:56.497Z,94734.78
2019-05-29T09:30:23.628Z,94726.37
2019-05-29T09:32:52.353Z,94732.61
2019-05-29T09:35:18.238Z,94724.89
2019-05-29T09:37:43.120Z,94731.97
2019-05-29T09:40:09.765Z,94726.13
2019-05-29T09:42:36.405Z,94720.37
2019-05-29T09:45:03.061Z,94728.54
2019-05-29T09:47:29.707Z,94722.11
2019-05-29T09:49:56.366Z,94725.88
2019-05-29T09:52:22.998Z,94728.25
2019-05-29T09:54:49.658Z,94723.22
2019-05-29T09:57:16.312Z,94724.26
2019-05-29T09:59:42.946Z,94717.19
2019-05-29T10:02:09.610Z,94719.37
2019-05-29T10:04:36.271Z,94714.53
2019-05-29T10:07:04.793Z,94714.60
2019-05-29T10:09:29.771Z,94718.16
2019-05-29T10:11:59.637Z,94714.82
2019-05-29T10:14:23.158Z,94715.10
2019-05-29T10:16:49.819Z,94707.78
2019-05-29T10:19:16.484Z,94699.72
2019-05-29T10:21:43.149Z,94696.35
2019-05-29T10:24:09.768Z,94696.66
2019-05-29T10:26:36.422Z,94685.05
2019-05-29T10:29:08.610Z,94691.43
2019-05-29T10:31:29.731Z,94692.03
2019-05-29T10:33:56.373Z,94685.86
2019-05-29T10:36:23.207Z,94687.98
2019-05-29T10:38:50.722Z,94684.30
2019-05-29T10:41:16.312Z,94680.41
2019-05-29T10:46:09.612Z,94679.66
2019-05-29T10:48:36.268Z,94676.90
2019-05-29T10:51:03.013Z,94682.57
2019-05-29T10:53:29.683Z,94684.95
2019-05-29T10:55:56.322Z,94672.59
2019-05-29T10:58:22.977Z,94657.24
2019-05-29T11:00:51.137Z,94679.72
2019-05-29T11:03:16.351Z,94684.39
2019-05-29T11:05:43.197Z,94676.06
2019-05-29T11:08:09.833Z,94675.58
2019-05-29T11:10:36.534Z,94674.95
2019-05-29T11:13:03.183Z,94672.20
2019-05-29T11:15:29.819Z,94673.66
2019-05-29T11:17:57.395Z,94670.54
2019-05-29T11:20:23.163Z,94669.02
2019-05-29T11:22:49.863Z,94659.13
2019-05-29T11:25:22.516Z,94675.42
2019-05-29T11:27:43.169Z,94669.22
2019-05-29T11:30:09.820Z,94674.41
2019-05-29T11:32:36.482Z,94670.67
2019-05-29T11:35:03.202Z,94678.78
2019-05-29T11:37:29.873Z,94674.16
2019-05-29T11:39:56.856Z,94667.39
2019-05-29T11:42:27.168Z,94671.91
2019-05-29T11:44:50.873Z,94678.22
2019-05-29T11:47:16.490Z,94665.98
2019-05-29T11:49:43.126Z,94670.80
2019-05-29T11:52:23.653Z,94670.91
2019-05-29T11:54:36.441Z,94663.14
2019-05-29T11:57:03.328Z,94667.87
2019-05-29T11:59:29.775Z,94660.36
2019-05-29T12:01:57.306Z,94657.73
2019-05-29T12:04:26.565Z,94655.33
2019-05-29T12:06:51.081Z,94655.64
2019-05-29T12:09:31.286Z,94662.28
2019-05-29T12:11:43.385Z,94662.09
2019-05-29T12:14:10.028Z,94662.11
2019-05-29T12:16:36.738Z,94667.23
2019-05-29T12:19:03.374Z,94662.14
2019-05-29T12:21:30.027Z,94653.74
2019-05-29T12:23:56.673Z,94649.28
2019-05-29T12:26:23.490Z,94659.97
2019-05-29T12:28:49.969Z,94654.24
2019-05-29T12:31:16.618Z,94653.13
2019-05-29T12:33:43.254Z,94656.19
2019-05-29T12:36:09.901Z,94656.83
2019-05-29T12:38:36.599Z,94664.25
2019-05-29T12:41:03.824Z,94657.36
2019-05-29T12:43:29.898Z,94652.50
2019-05-29T12:45:57.725Z,94659.22
2019-05-29T12:50:49.852Z,94652.94
2019-05-29T12:53:29.804Z,94652.23
2019-05-29T12:55:43.145Z,94644.78
2019-05-29T12:58:09.865Z,94645.97
2019-05-29T13:00:36.511Z,94645.28
2019-05-29T13:03:03.761Z,94641.97
2019-05-29T13:05:29.811Z,94642.78
2019-05-29T13:07:56.858Z,94649.81
2019-05-29T13:10:30.502Z,94646.52
2019-05-29T13:12:49.824Z,94648.32
2019-05-29T13:15:16.490Z,94637.46
2019-05-29T13:17:43.140Z,94634.63
2019-05-29T13:20:21.063Z,94622.48
2019-05-29T13:22:36.524Z,94629.19
2019-05-29T13:25:03.494Z,94629.19
2019-05-29T13:27:29.868Z,94623.82
2019-05-29T13:29:59.872Z,94632.34
2019-05-29T13:32:23.203Z,94634.13
2019-05-29T13:37:16.510Z,94633.84
2019-05-29T13:39:43.152Z,94641.53
2019-05-29T13:42:12.112Z,94636.65
2019-05-29T13:44:36.465Z,94639.62
2019-05-29T13:47:04.049Z,94641.39
2019-05-29T13:49:29.851Z,94643.25
2019-05-29T13:51:57.148Z,94639.32
2019-05-29T13:54:23.141Z,94638.03
2019-05-29T13:56:50.134Z,94639.47
2019-05-29T13:59:16.439Z,94641.23
2019-05-29T14:01:47.962Z,94649.76
2019-05-29T14:04:09.802Z,94642.01
2019-05-29T14:06:38.646Z,94646.11
2019-05-29T14:09:03.130Z,94642.33
2019-05-29T14:11:29.782Z,94655.48
2019-05-29T14:13:56.506Z,94655.84
2019-05-29T14:16:23.083Z,94655.59
2019-05-29T14:18:49.863Z,94658.86
2019-05-29T14:23:43.148Z,94656.91
2019-05-29T14:26:09.790Z,94656.19
2019-05-29T14:28:36.455Z,94650.92
2019-05-29T14:31:03.889Z,94656.94
2019-05-29T14:33:29.752Z,94658.84
2019-05-29T14:35:56.389Z,94660.55
2019-05-29T14:38:23.074Z,94656.88
2019-05-29T14:40:49.727Z,94650.87
2019-05-29T14:43:16.385Z,94653.08
2019-05-29T14:45:43.086Z,94646.33
2019-05-29T14:48:10.189Z,94648.38
2019-05-29T14:50:36.366Z,94638.56
2019-05-29T14:53:03.093Z,94636.73
2019-05-29T14:57:56.326Z,94639.77
2019-05-29T15:00:25.767Z,94629.13
2019-05-29T15:02:49.672Z,94640.13
2019-05-29T15:05:16.351Z,94645.75
2019-05-29T15:10:22.692Z,94647.20
2019-05-29T15:12:36.345Z,94645.03
2019-05-29T15:15:04.634Z,94636.87
2019-05-29T15:17:29.665Z,94650.18
2019-05-29T15:19:56.358Z,94650.75
2019-05-29T15:22:23.003Z,94649.03
2019-05-29T15:25:00.827Z,94652.14
2019-05-29T15:27:16.305Z,94638.73
2019-05-29T15:29:42.949Z,94650.12
2019-05-29T15:32:10.356Z,94641.35
2019-05-29T15:34:36.374Z,94636.61
2019-05-29T15:37:03.026Z,94639.89
2019-05-29T15:39:29.676Z,94645.78
2019-05-29T15:41:56.314Z,94651.20
2019-05-29T15:44:22.970Z,94650.14
2019-05-29T15:46:49.615Z,94653.13
2019-05-29T15:49:17.271Z,94656.41
2019-05-29T15:51:42.902Z,94661.91
2019-05-29T15:54:09.558Z,94662.98
2019-05-29T15:56:36.193Z,94672.02
2019-05-29T15:59:02.870Z,94673.41
2019-05-29T16:01:29.489Z,94679.19
2019-05-29T16:03:56.138Z,94686.88
2019-05-29T16:06:22.776Z,94687.95
2019-05-29T16:08:49.491Z,94697.69
2019-05-29T16:11:16.825Z,94693.41
2019-05-29T16:13:42.777Z,94688.10
2019-05-29T16:16:09.527Z,94703.36
2019-05-29T16:18:36.133Z,94706.81
2019-05-29T16:21:02.767Z,94712.23
2019-05-29T16:23:35.546Z,94715.91
2019-05-29T16:25:56.093Z,94719.30
2019-05-29T16:28:22.773Z,94713.74
2019-05-29T16:30:49.385Z,94712.67
2019-05-29T16:33:17.201Z,94711.48
2019-05-29T16:35:42.707Z,94717.08
2019-05-29T16:38:09.357Z,94718.53
2019-05-29T16:40:35.999Z,94719.02
2019-05-29T16:43:02.634Z,94721.13
2019-05-29T16:45:29.288Z,94727.66
2019-05-29T16:47:55.932Z,94722.52
2019-05-29T16:50:22.873Z,94721.63
2019-05-29T16:52:49.231Z,94716.65
2019-05-29T16:55:17.212Z,94721.28
2019-05-29T16:57:42.584Z,94718.48
2019-05-29T17:00:09.233Z,94724.39
2019-05-29T17:02:35.878Z,94735.63
2019-05-29T17:05:02.516Z,94747.00
2019-05-29T17:07:29.178Z,94744.71
2019-05-29T17:09:55.819Z,94749.72
2019-05-29T17:12:22.623Z,94751.28
2019-05-29T17:14:49.108Z,94754.58
2019-05-29T17:17:16.870Z,94753.13
2019-05-29T17:19:42.484Z,94750.67
2019-05-29T17:22:09.141Z,94752.79
2019-05-29T17:24:35.779Z,94758.23
2019-05-29T17:27:02.420Z,94757.86
2019-05-29T17:29:29.064Z,94766.20
2019-05-29T17:31:55.705Z,94769.23
2019-05-29T17:34:23.219Z,94773.66
2019-05-29T17:36:49.002Z,94773.08
2019-05-29T17:39:16.899Z,94773.33
2019-05-29T17:41:42.315Z,94767.08
2019-05-29T17:44:08.986Z,94767.64
2019-05-29T17:46:35.695Z,94776.16
2019-05-29T17:49:02.347Z,94768.72
2019-05-29T17:51:28.985Z,94768.84
2019-05-29T17:53:55.639Z,94773.95
2019-05-29T17:56:29.688Z,94778.69
2019-05-29T17:58:48.980Z,94788.99
2019-05-29T18:01:16.101Z,94790.62
2019-05-29T18:03:42.270Z,94799.64
2019-05-29T18:06:08.928Z,94808.03
2019-05-29T18:08:35.570Z,94806.97
2019-05-29T18:11:02.208Z,94805.31
2019-05-29T18:13:28.863Z,94816.41
2019-05-29T18:15:55.549Z,94818.50
2019-05-29T18:18:23.452Z,94815.23
2019-05-29T18:20:48.892Z,94818.13
2019-05-29T18:23:15.524Z,94823.56
2019-05-29T18:25:42.168Z,94823.44
2019-05-29T18:28:08.806Z,94819.91
2019-05-29T18:30:35.442Z,94823.78
2019-05-29T18:33:02.092Z,94832.24
2019-05-29T18:35:29.069Z,94841.09
2019-05-29T18:37:55.451Z,94842.85
2019-05-29T18:40:22.391Z,94842.36
2019-05-29T18:42:48.733Z,94851.19
2019-05-29T18:45:20.997Z,94859.30
2019-05-29T18:47:42.102Z,94862.17
2019-05-29T18:52:35.423Z,94865.79
2019-05-29T18:55:02.066Z,94864.14
2019-05-29T18:57:29.062Z,94872.02
2019-05-29T18:59:55.438Z,94871.98
2019-05-29T19:02:23.230Z,94873.29
2019-05-29T19:04:48.757Z,94878.42
2019-05-29T19:07:15.453Z,94887.77
2019-05-29T19:09:42.101Z,94892.56
2019-05-29T19:12:08.777Z,94893.16
2019-05-29T19:14:35.426Z,94904.34
2019-05-29T19:17:02.142Z,94908.21
2019-05-29T19:19:30.183Z,94907.16
2019-05-29T19:21:55.480Z,94909.30
2019-05-29T19:24:22.566Z,94914.48
2019-05-29T19:26:48.775Z,94914.44
2019-05-29T19:29:15.497Z,94913.39
2019-05-29T19:31:42.673Z,94918.98
2019-05-29T19:34:08.791Z,94923.77
2019-05-29T19:36:35.446Z,94931.00
2019-05-29T19:39:02.133Z,94933.07
2019-05-29T19:41:29.985Z,94932.31
2019-05-29T19:43:55.461Z,94941.09
2019-05-29T19:46:22.104Z,94949.00
2019-05-29T19:48:50.701Z,94948.08
2019-05-29T19:51:15.397Z,94957.03
2019-05-29T19:53:42.107Z,94960.11
2019-05-29T19:56:11.649Z,94964.73
2019-05-29T19:58:38.297Z,94962.50
2019-05-29T20:03:32.571Z,94978.81
2019-05-29T20:05:58.242Z,94988.80
2019-05-29T20:08:24.942Z,94987.20
2019-05-29T20:10:51.582Z,94996.84
2019-05-29T20:13:18.271Z,94995.11
2019-05-29T20:15:44.913Z,94995.94
2019-05-29T20:18:11.609Z,94992.03
2019-05-29T20:20:38.725Z,94986.45
2019-05-29T20:23:04.935Z,94987.48
2019-05-29T20:25:32.744Z,94997.80
2019-05-29T20:28:06.523Z,95000.52
2019-05-29T20:30:24.901Z,95001.05
2019-05-29T20:32:51.556Z,95005.72
2019-05-29T20:35:18.233Z,95008.70
2019-05-29T20:37:44.917Z,95006.69
2019-05-29T20:40:11.610Z,95001.94
2019-05-29T20:42:38.556Z,95006.13
2019-05-29T20:45:04.954Z,95010.92
2019-05-29T20:49:58.254Z,95009.34
2019-05-29T20:52:24.894Z,95018.33
2019-05-29T20:54:51.546Z,95019.97
2019-05-29T20:57:18.208Z,95028.86
2019-05-29T20:59:44.840Z,95033.93
2019-05-29T21:02:11.525Z,95039.76
2019-05-29T21:04:38.482Z,95036.10
2019-05-29T21:07:04.850Z,95032.03
2019-05-29T21:09:32.845Z,95050.53
2019-05-29T21:11:58.167Z,95046.97
2019-05-29T21:14:24.793Z,95042.08
2019-05-29T21:16:51.486Z,95048.13
2019-05-29T21:19:18.111Z,95044.13
2019-05-29T21:21:44.754Z,95042.27
2019-05-29T21:24:11.390Z,95054.05
2019-05-29T21:26:38.905Z,95056.70
2019-05-29T21:29:04.681Z,95049.92
2019-05-29T21:31:31.328Z,95053.17
2019-05-29T21:36:24.641Z,95055.49
2019-05-29T21:38:51.344Z,95063.53
2019-05-29T21:41:17.976Z,95060.16
2019-05-29T21:43:44.826Z,95058.90
2019-05-29T21:48:38.989Z,95066.64
2019-05-29T21:51:04.669Z,95068.15
2019-05-29T21:53:31.312Z,95054.29
2019-05-29T21:55:57.948Z,95054.81
2019-05-29T21:58:24.598Z,95061.77
2019-05-29T22:00:51.277Z,95056.98
2019-05-29T22:03:17.919Z,95054.46
2019-05-29T22:05:44.786Z,95050.25
2019-05-29T22:08:11.269Z,95054.48
2019-05-29T22:10:37.910Z,95048.19
2019-05-29T22:13:04.553Z,95044.41
2019-05-29T22:15:31.203Z,95050.98
2019-05-29T22:17:59.069Z,95050.38
2019-05-29T22:20:24.521Z,95053.52
2019-05-29T22:22:51.210Z,95054.07
2019-05-29T22:25:17.841Z,95052.53
2019-05-29T22:27:44.477Z,95052.16
2019-05-29T22:30:11.116Z,95056.57
2019-05-29T22:32:37.760Z,95059.19
2019-05-29T22:35:04.396Z,95052.77
2019-05-29T22:37:31.089Z,95056.72
2019-05-29T22:39:57.760Z,95059.53
2019-05-29T22:42:24.382Z,95060.34
2019-05-29T22:44:51.599Z,95064.42
2019-05-29T22:47:17.675Z,95060.77
2019-05-29T22:49:44.326Z,95058.39
2019-05-29T22:52:10.956Z,95061.27
2019-05-29T22:54:37.608Z,95066.08
2019-05-29T22:57:04.240Z,95066.58
2019-05-29T22:59:32.162Z,95066.38
2019-05-29T23:01:58.196Z,95069.49
2019-05-29T23:04:24.190Z,95076.83
2019-05-29T23:06:51.991Z,95082.12
2019-05-29T23:09:17.490Z,95080.22
2019-05-29T23:11:44.129Z,95082.12
2019-05-29T23:14:10.792Z,95079.70
2019-05-29T23:16:37.437Z,95083.12
2019-05-29T23:19:04.133Z,95089.91
2019-05-29T23:21:30.780Z,95091.92
2019-05-29T23:23:57.542Z,95084.00
2019-05-29T23:26:24.096Z,95075.19
2019-05-29T23:28:50.769Z,95073.55
2019-05-29T23:31:17.426Z,95086.27
2019-05-29T23:33:44.071Z,95089.31
2019-05-29T23:36:10.779Z,95088.30
2019-05-29T23:38:37.422Z,95086.17
2019-05-29T23:41:04.059Z,95092.70
2019-05-29T23:43:30.711Z,95092.59
2019-05-29T23:45:57.454Z,95087.55
2019-05-29T23:48:24.075Z,95091.86
2019-05-29T23:50:50.712Z,95095.62
2019-05-29T23:53:17.391Z,95094.75
2019-05-29T23:55:44.025Z,95098.62
2019-05-29T23:58:10.716Z,95096.13
